sensor_id;sensor_type;location;lat;lon;timestamp;temperature;humidity
23063;DHT22;11699;43.704;10.430;2023-06-22T00:02:21;23.60;99.90
23063;DHT22;11699;43.704;10.430;2023-06-22T00:04:48;23.60;99.90
23063;DHT22;11699;43.704;10.430;2023-06-22T00:07:17;23.60;99.90
23063;DHT22;11699;43.704;10.430;2023-06-22T00:09:44;23.60;99.90
23063;DHT22;11699;43.704;10.430;2023-06-22T00:12:11;23.60;99.90
23063;DHT22;11699;43.704;10.430;2023-06-22T00:14:38;23.70;99.90
23063;DHT22;11699;43.704;10.430;2023-06-22T00:17:05;23.80;99.90
23063;DHT22;11699;43.704;10.430;2023-06-22T00:19:35;23.80;99.90
23063;DHT22;11699;43.704;10.430;2023-06-22T00:22:06;23.70;99.90
23063;DHT22;11699;43.704;10.430;2023-06-22T00:24:35;23.70;99.90
23063;DHT22;11699;43.704;10.430;2023-06-22T00:27:02;23.60;99.90
23063;DHT22;11699;43.704;10.430;2023-06-22T00:29:31;23.60;99.90
23063;DHT22;11699;43.704;10.430;2023-06-22T00:31:58;23.60;99.90
23063;DHT22;11699;43.704;10.430;2023-06-22T00:34:25;23.60;99.90
23063;DHT22;11699;43.704;10.430;2023-06-22T00:36:52;23.60;99.90
23063;DHT22;11699;43.704;10.430;2023-06-22T00:39:19;23.60;99.90
23063;DHT22;11699;43.704;10.430;2023-06-22T00:41:48;23.60;99.90
23063;DHT22;11699;43.704;10.430;2023-06-22T00:44:15;23.60;99.90
23063;DHT22;11699;43.704;10.430;2023-06-22T00:46:44;23.60;99.90
23063;DHT22;11699;43.704;10.430;2023-06-22T00:49:11;23.60;99.90
23063;DHT22;11699;43.704;10.430;2023-06-22T00:51:38;23.60;99.90
23063;DHT22;11699;43.704;10.430;2023-06-22T00:54:11;23.50;99.90
23063;DHT22;11699;43.704;10.430;2023-06-22T00:56:39;23.50;99.90
23063;DHT22;11699;43.704;10.430;2023-06-22T00:59:08;23.40;99.90
23063;DHT22;11699;43.704;10.430;2023-06-22T01:01:37;23.50;99.90
23063;DHT22;11699;43.704;10.430;2023-06-22T01:04:07;23.40;99.90
23063;DHT22;11699;43.704;10.430;2023-06-22T01:06:38;23.40;99.90
23063;DHT22;11699;43.704;10.430;2023-06-22T01:09:13;23.30;99.90
23063;DHT22;11699;43.704;10.430;2023-06-22T01:11:44;23.30;99.90
23063;DHT22;11699;43.704;10.430;2023-06-22T01:14:18;23.20;99.90
23063;DHT22;11699;43.704;10.430;2023-06-22T01:16:51;23.20;99.90
23063;DHT22;11699;43.704;10.430;2023-06-22T01:19:29;23.20;99.90
23063;DHT22;11699;43.704;10.430;2023-06-22T01:22:03;23.20;99.90
23063;DHT22;11699;43.704;10.430;2023-06-22T01:24:38;23.30;99.90
23063;DHT22;11699;43.704;10.430;2023-06-22T01:27:18;23.20;99.90
23063;DHT22;11699;43.704;10.430;2023-06-22T01:29:55;23.10;99.90
23063;DHT22;11699;43.704;10.430;2023-06-22T01:32:28;23.00;99.90
23063;DHT22;11699;43.704;10.430;2023-06-22T01:34:56;22.90;99.90
23063;DHT22;11699;43.704;10.430;2023-06-22T01:37:25;22.90;99.90
23063;DHT22;11699;43.704;10.430;2023-06-22T01:39:54;22.90;99.90
23063;DHT22;11699;43.704;10.430;2023-06-22T01:42:23;22.70;99.90
23063;DHT22;11699;43.704;10.430;2023-06-22T01:44:53;22.80;99.90
23063;DHT22;11699;43.704;10.430;2023-06-22T01:47:21;22.70;99.90
23063;DHT22;11699;43.704;10.430;2023-06-22T01:49:49;22.80;99.90
23063;DHT22;11699;43.704;10.430;2023-06-22T01:52:18;22.80;99.90
23063;DHT22;11699;43.704;10.430;2023-06-22T01:54:47;22.70;99.90
23063;DHT22;11699;43.704;10.430;2023-06-22T01:57:14;22.70;99.90
23063;DHT22;11699;43.704;10.430;2023-06-22T01:59:48;22.70;99.90
23063;DHT22;11699;43.704;10.430;2023-06-22T02:02:20;22.70;99.90
23063;DHT22;11699;43.704;10.430;2023-06-22T02:04:56;22.70;99.90
23063;DHT22;11699;43.704;10.430;2023-06-22T02:07:28;22.60;99.90
23063;DHT22;11699;43.704;10.430;2023-06-22T02:09:59;22.60;99.90
23063;DHT22;11699;43.704;10.430;2023-06-22T02:12:28;22.60;99.90
23063;DHT22;11699;43.704;10.430;2023-06-22T02:14:56;22.70;99.90
23063;DHT22;11699;43.704;10.430;2023-06-22T02:17:26;22.60;99.90
23063;DHT22;11699;43.704;10.430;2023-06-22T02:19:54;22.60;99.90
23063;DHT22;11699;43.704;10.430;2023-06-22T02:22:21;22.50;99.90
23063;DHT22;11699;43.704;10.430;2023-06-22T02:24:49;22.50;99.90
23063;DHT22;11699;43.704;10.430;2023-06-22T02:27:16;22.50;99.90
23063;DHT22;11699;43.704;10.430;2023-06-22T02:29:46;22.50;99.90
23063;DHT22;11699;43.704;10.430;2023-06-22T02:32:13;22.50;99.90
23063;DHT22;11699;43.704;10.430;2023-06-22T02:34:42;22.30;99.90
23063;DHT22;11699;43.704;10.430;2023-06-22T02:37:13;22.40;99.90
23063;DHT22;11699;43.704;10.430;2023-06-22T02:39:41;22.40;99.90
23063;DHT22;11699;43.704;10.430;2023-06-22T02:42:08;22.50;99.90
23063;DHT22;11699;43.704;10.430;2023-06-22T02:44:37;22.60;99.90
23063;DHT22;11699;43.704;10.430;2023-06-22T02:47:04;22.70;99.90
23063;DHT22;11699;43.704;10.430;2023-06-22T02:49:32;22.70;99.90
23063;DHT22;11699;43.704;10.430;2023-06-22T02:52:00;22.70;99.90
23063;DHT22;11699;43.704;10.430;2023-06-22T02:54:28;22.80;99.90
23063;DHT22;11699;43.704;10.430;2023-06-22T02:56:56;22.80;99.90
23063;DHT22;11699;43.704;10.430;2023-06-22T02:59:24;22.90;99.90
23063;DHT22;11699;43.704;10.430;2023-06-22T03:01:51;23.00;99.90
23063;DHT22;11699;43.704;10.430;2023-06-22T03:04:19;22.90;99.90
23063;DHT22;11699;43.704;10.430;2023-06-22T03:06:46;22.90;99.90
23063;DHT22;11699;43.704;10.430;2023-06-22T03:09:18;22.80;99.90
23063;DHT22;11699;43.704;10.430;2023-06-22T03:11:45;22.70;99.90
23063;DHT22;11699;43.704;10.430;2023-06-22T03:14:12;22.80;99.90
23063;DHT22;11699;43.704;10.430;2023-06-22T03:16:39;22.80;99.90
23063;DHT22;11699;43.704;10.430;2023-06-22T03:19:07;22.80;99.90
23063;DHT22;11699;43.704;10.430;2023-06-22T03:21:35;22.70;99.90
23063;DHT22;11699;43.704;10.430;2023-06-22T03:24:04;22.50;99.90
23063;DHT22;11699;43.704;10.430;2023-06-22T03:26:34;22.50;99.90
23063;DHT22;11699;43.704;10.430;2023-06-22T03:29:01;22.50;99.90
23063;DHT22;11699;43.704;10.430;2023-06-22T03:31:29;22.50;99.90
23063;DHT22;11699;43.704;10.430;2023-06-22T03:33:56;22.40;99.90
23063;DHT22;11699;43.704;10.430;2023-06-22T03:36:23;22.50;99.90
23063;DHT22;11699;43.704;10.430;2023-06-22T03:38:51;22.50;99.90
23063;DHT22;11699;43.704;10.430;2023-06-22T03:41:18;22.50;99.90
23063;DHT22;11699;43.704;10.430;2023-06-22T03:43:46;22.40;99.90
23063;DHT22;11699;43.704;10.430;2023-06-22T03:46:14;22.40;99.90
23063;DHT22;11699;43.704;10.430;2023-06-22T03:48:41;22.40;99.90
23063;DHT22;11699;43.704;10.430;2023-06-22T03:51:08;22.40;99.90
23063;DHT22;11699;43.704;10.430;2023-06-22T03:53:35;22.40;99.90
23063;DHT22;11699;43.704;10.430;2023-06-22T03:56:02;22.40;99.90
23063;DHT22;11699;43.704;10.430;2023-06-22T03:58:30;22.30;99.90
23063;DHT22;11699;43.704;10.430;2023-06-22T04:01:00;22.30;99.90
23063;DHT22;11699;43.704;10.430;2023-06-22T04:03:27;22.30;99.90
23063;DHT22;11699;43.704;10.430;2023-06-22T04:05:55;22.30;99.90
23063;DHT22;11699;43.704;10.430;2023-06-22T04:08:22;22.30;99.90
23063;DHT22;11699;43.704;10.430;2023-06-22T04:10:49;22.20;99.90
23063;DHT22;11699;43.704;10.430;2023-06-22T04:13:18;22.20;99.90
23063;DHT22;11699;43.704;10.430;2023-06-22T04:15:45;22.10;99.90
23063;DHT22;11699;43.704;10.430;2023-06-22T04:18:13;22.20;99.90
23063;DHT22;11699;43.704;10.430;2023-06-22T04:20:41;22.20;99.90
23063;DHT22;11699;43.704;10.430;2023-06-22T04:23:08;22.20;99.90
23063;DHT22;11699;43.704;10.430;2023-06-22T04:25:35;22.20;99.90
23063;DHT22;11699;43.704;10.430;2023-06-22T04:28:02;22.30;99.90
23063;DHT22;11699;43.704;10.430;2023-06-22T04:30:32;22.20;99.90
23063;DHT22;11699;43.704;10.430;2023-06-22T04:32:59;22.30;99.90
23063;DHT22;11699;43.704;10.430;2023-06-22T04:35:28;22.40;99.90
23063;DHT22;11699;43.704;10.430;2023-06-22T04:37:58;22.40;99.90
23063;DHT22;11699;43.704;10.430;2023-06-22T04:40:25;22.50;99.90
23063;DHT22;11699;43.704;10.430;2023-06-22T04:42:53;22.60;99.90
23063;DHT22;11699;43.704;10.430;2023-06-22T04:45:20;22.60;99.90
23063;DHT22;11699;43.704;10.430;2023-06-22T04:47:47;22.70;99.90
23063;DHT22;11699;43.704;10.430;2023-06-22T04:50:15;22.70;99.90
23063;DHT22;11699;43.704;10.430;2023-06-22T04:52:44;22.90;99.90
23063;DHT22;11699;43.704;10.430;2023-06-22T04:55:12;22.90;99.90
23063;DHT22;11699;43.704;10.430;2023-06-22T04:57:44;23.00;99.90
23063;DHT22;11699;43.704;10.430;2023-06-22T05:00:15;23.00;99.90
23063;DHT22;11699;43.704;10.430;2023-06-22T05:02:44;23.10;99.90
23063;DHT22;11699;43.704;10.430;2023-06-22T05:05:12;23.10;99.90
23063;DHT22;11699;43.704;10.430;2023-06-22T05:07:41;23.10;99.90
23063;DHT22;11699;43.704;10.430;2023-06-22T05:10:11;23.20;99.90
23063;DHT22;11699;43.704;10.430;2023-06-22T05:12:40;23.20;99.90
23063;DHT22;11699;43.704;10.430;2023-06-22T05:15:08;23.00;99.90
23063;DHT22;11699;43.704;10.430;2023-06-22T05:17:35;23.00;99.90
23063;DHT22;11699;43.704;10.430;2023-06-22T05:20:09;23.10;99.90
23063;DHT22;11699;43.704;10.430;2023-06-22T05:22:37;23.00;99.90
23063;DHT22;11699;43.704;10.430;2023-06-22T05:25:05;23.10;99.90
23063;DHT22;11699;43.704;10.430;2023-06-22T05:27:34;23.10;99.90
23063;DHT22;11699;43.704;10.430;2023-06-22T05:30:06;23.20;99.90
23063;DHT22;11699;43.704;10.430;2023-06-22T05:32:33;23.20;99.90
23063;DHT22;11699;43.704;10.430;2023-06-22T05:35:01;23.20;99.90
23063;DHT22;11699;43.704;10.430;2023-06-22T05:37:28;23.20;99.90
23063;DHT22;11699;43.704;10.430;2023-06-22T05:39:56;23.20;99.90
23063;DHT22;11699;43.704;10.430;2023-06-22T05:42:24;23.40;99.90
23063;DHT22;11699;43.704;10.430;2023-06-22T05:44:53;23.40;99.90
23063;DHT22;11699;43.704;10.430;2023-06-22T05:47:21;23.60;99.90
23063;DHT22;11699;43.704;10.430;2023-06-22T05:49:48;23.80;99.90
23063;DHT22;11699;43.704;10.430;2023-06-22T05:52:15;24.10;99.90
23063;DHT22;11699;43.704;10.430;2023-06-22T05:54:42;24.20;99.90
23063;DHT22;11699;43.704;10.430;2023-06-22T05:57:09;24.30;99.90
23063;DHT22;11699;43.704;10.430;2023-06-22T05:59:37;24.40;99.90
23063;DHT22;11699;43.704;10.430;2023-06-22T06:02:06;24.50;99.90
23063;DHT22;11699;43.704;10.430;2023-06-22T06:04:33;24.60;99.90
23063;DHT22;11699;43.704;10.430;2023-06-22T06:07:01;24.80;99.90
23063;DHT22;11699;43.704;10.430;2023-06-22T06:09:28;24.80;99.90
23063;DHT22;11699;43.704;10.430;2023-06-22T06:11:56;24.70;99.90
23063;DHT22;11699;43.704;10.430;2023-06-22T06:14:23;24.60;99.90
23063;DHT22;11699;43.704;10.430;2023-06-22T06:16:50;24.50;99.90
23063;DHT22;11699;43.704;10.430;2023-06-22T06:19:19;24.50;99.90
23063;DHT22;11699;43.704;10.430;2023-06-22T06:21:46;24.70;99.90
23063;DHT22;11699;43.704;10.430;2023-06-22T06:24:13;24.90;99.90
23063;DHT22;11699;43.704;10.430;2023-06-22T06:26:40;25.10;99.90
23063;DHT22;11699;43.704;10.430;2023-06-22T06:29:07;25.40;99.90
23063;DHT22;11699;43.704;10.430;2023-06-22T06:31:34;25.60;99.90
23063;DHT22;11699;43.704;10.430;2023-06-22T06:34:01;25.70;99.90
23063;DHT22;11699;43.704;10.430;2023-06-22T06:36:30;25.90;99.90
23063;DHT22;11699;43.704;10.430;2023-06-22T06:38:57;26.00;99.90
23063;DHT22;11699;43.704;10.430;2023-06-22T06:41:25;26.10;99.90
23063;DHT22;11699;43.704;10.430;2023-06-22T06:43:52;26.30;99.90
23063;DHT22;11699;43.704;10.430;2023-06-22T06:46:19;26.40;99.90
23063;DHT22;11699;43.704;10.430;2023-06-22T06:48:47;26.50;99.90
23063;DHT22;11699;43.704;10.430;2023-06-22T06:51:14;26.70;99.90
23063;DHT22;11699;43.704;10.430;2023-06-22T06:53:43;26.80;99.90
23063;DHT22;11699;43.704;10.430;2023-06-22T06:56:10;27.00;99.90
23063;DHT22;11699;43.704;10.430;2023-06-22T06:58:40;27.10;99.90
23063;DHT22;11699;43.704;10.430;2023-06-22T07:01:07;27.30;99.90
23063;DHT22;11699;43.704;10.430;2023-06-22T07:03:34;27.50;99.90
23063;DHT22;11699;43.704;10.430;2023-06-22T07:06:01;28.00;99.90
23063;DHT22;11699;43.704;10.430;2023-06-22T07:08:29;28.70;99.90
23063;DHT22;11699;43.704;10.430;2023-06-22T07:10:58;29.10;99.90
23063;DHT22;11699;43.704;10.430;2023-06-22T07:13:26;29.80;99.90
23063;DHT22;11699;43.704;10.430;2023-06-22T07:15:54;30.30;99.90
23063;DHT22;11699;43.704;10.430;2023-06-22T07:18:21;30.90;99.90
23063;DHT22;11699;43.704;10.430;2023-06-22T07:20:48;31.10;99.90
23063;DHT22;11699;43.704;10.430;2023-06-22T07:23:15;31.40;99.70
23063;DHT22;11699;43.704;10.430;2023-06-22T07:25:42;31.60;99.40
23063;DHT22;11699;43.704;10.430;2023-06-22T07:28:11;31.70;98.80
23063;DHT22;11699;43.704;10.430;2023-06-22T07:30:38;32.20;98.50
23063;DHT22;11699;43.704;10.430;2023-06-22T07:33:05;32.50;98.50
23063;DHT22;11699;43.704;10.430;2023-06-22T07:35:34;33.00;97.90
23063;DHT22;11699;43.704;10.430;2023-06-22T07:38:01;33.00;97.80
23063;DHT22;11699;43.704;10.430;2023-06-22T07:40:29;33.10;98.20
23063;DHT22;11699;43.704;10.430;2023-06-22T07:42:56;33.40;97.80
23063;DHT22;11699;43.704;10.430;2023-06-22T07:45:24;34.10;96.70
23063;DHT22;11699;43.704;10.430;2023-06-22T07:47:52;34.20;96.20
23063;DHT22;11699;43.704;10.430;2023-06-22T07:50:19;33.80;96.80
23063;DHT22;11699;43.704;10.430;2023-06-22T07:52:46;34.50;96.40
23063;DHT22;11699;43.704;10.430;2023-06-22T07:55:14;34.90;96.60
23063;DHT22;11699;43.704;10.430;2023-06-22T07:57:41;35.20;96.10
23063;DHT22;11699;43.704;10.430;2023-06-22T08:00:09;35.00;96.00
23063;DHT22;11699;43.704;10.430;2023-06-22T08:02:45;35.10;95.80
23063;DHT22;11699;43.704;10.430;2023-06-22T08:05:14;35.20;95.70
23063;DHT22;11699;43.704;10.430;2023-06-22T08:07:41;35.80;95.60
23063;DHT22;11699;43.704;10.430;2023-06-22T08:10:11;35.60;94.90
23063;DHT22;11699;43.704;10.430;2023-06-22T08:12:38;35.20;95.90
23063;DHT22;11699;43.704;10.430;2023-06-22T08:15:06;35.30;95.60
23063;DHT22;11699;43.704;10.430;2023-06-22T08:17:36;35.10;96.20
23063;DHT22;11699;43.704;10.430;2023-06-22T08:20:05;35.40;95.60
23063;DHT22;11699;43.704;10.430;2023-06-22T08:22:36;35.50;95.70
23063;DHT22;11699;43.704;10.430;2023-06-22T08:25:04;36.00;95.00
23063;DHT22;11699;43.704;10.430;2023-06-22T08:27:32;35.40;94.90
23063;DHT22;11699;43.704;10.430;2023-06-22T08:29:59;35.10;94.20
23063;DHT22;11699;43.704;10.430;2023-06-22T08:32:27;35.30;94.80
23063;DHT22;11699;43.704;10.430;2023-06-22T08:34:55;35.30;94.90
23063;DHT22;11699;43.704;10.430;2023-06-22T08:37:24;35.20;94.10
23063;DHT22;11699;43.704;10.430;2023-06-22T08:39:56;35.60;94.40
23063;DHT22;11699;43.704;10.430;2023-06-22T08:42:23;35.70;94.60
23063;DHT22;11699;43.704;10.430;2023-06-22T08:44:51;36.30;94.90
23063;DHT22;11699;43.704;10.430;2023-06-22T08:47:19;36.30;93.40
23063;DHT22;11699;43.704;10.430;2023-06-22T08:49:47;36.20;92.20
23063;DHT22;11699;43.704;10.430;2023-06-22T08:52:14;36.20;93.60
23063;DHT22;11699;43.704;10.430;2023-06-22T08:54:42;36.90;94.50
23063;DHT22;11699;43.704;10.430;2023-06-22T08:57:10;37.00;92.50
23063;DHT22;11699;43.704;10.430;2023-06-22T08:59:37;36.90;92.20
23063;DHT22;11699;43.704;10.430;2023-06-22T09:02:05;36.80;93.30
23063;DHT22;11699;43.704;10.430;2023-06-22T09:04:32;36.80;92.90
23063;DHT22;11699;43.704;10.430;2023-06-22T09:07:00;37.60;94.40
23063;DHT22;11699;43.704;10.430;2023-06-22T09:09:28;37.50;92.80
23063;DHT22;11699;43.704;10.430;2023-06-22T09:11:57;37.90;91.80
23063;DHT22;11699;43.704;10.430;2023-06-22T09:14:24;37.10;91.30
23063;DHT22;11699;43.704;10.430;2023-06-22T09:16:52;36.90;92.10
23063;DHT22;11699;43.704;10.430;2023-06-22T09:19:19;37.00;91.90
23063;DHT22;11699;43.704;10.430;2023-06-22T09:21:46;36.80;92.00
23063;DHT22;11699;43.704;10.430;2023-06-22T09:24:14;37.10;93.20
23063;DHT22;11699;43.704;10.430;2023-06-22T09:26:41;37.30;92.30
23063;DHT22;11699;43.704;10.430;2023-06-22T09:29:10;37.10;92.30
23063;DHT22;11699;43.704;10.430;2023-06-22T09:31:37;36.90;92.90
23063;DHT22;11699;43.704;10.430;2023-06-22T09:34:05;36.90;92.10
23063;DHT22;11699;43.704;10.430;2023-06-22T09:36:32;36.90;91.90
23063;DHT22;11699;43.704;10.430;2023-06-22T09:38:59;36.60;91.30
23063;DHT22;11699;43.704;10.430;2023-06-22T09:41:32;36.80;91.70
23063;DHT22;11699;43.704;10.430;2023-06-22T09:44:00;37.00;91.30
23063;DHT22;11699;43.704;10.430;2023-06-22T09:46:28;37.20;91.70
23063;DHT22;11699;43.704;10.430;2023-06-22T09:48:55;37.20;87.30
23063;DHT22;11699;43.704;10.430;2023-06-22T09:51:24;37.20;90.50
23063;DHT22;11699;43.704;10.430;2023-06-22T09:53:52;37.20;87.30
23063;DHT22;11699;43.704;10.430;2023-06-22T09:56:19;37.40;87.60
23063;DHT22;11699;43.704;10.430;2023-06-22T09:58:46;37.30;87.40
23063;DHT22;11699;43.704;10.430;2023-06-22T10:01:16;37.40;87.70
23063;DHT22;11699;43.704;10.430;2023-06-22T10:03:44;37.40;86.80
23063;DHT22;11699;43.704;10.430;2023-06-22T10:06:12;37.50;86.70
23063;DHT22;11699;43.704;10.430;2023-06-22T10:08:39;37.50;86.80
23063;DHT22;11699;43.704;10.430;2023-06-22T10:11:06;37.60;85.30
23063;DHT22;11699;43.704;10.430;2023-06-22T10:16:19;38.00;81.00
23063;DHT22;11699;43.704;10.430;2023-06-22T10:18:47;37.90;82.10
23063;DHT22;11699;43.704;10.430;2023-06-22T10:21:15;37.50;81.90
23063;DHT22;11699;43.704;10.430;2023-06-22T10:23:42;37.60;80.90
23063;DHT22;11699;43.704;10.430;2023-06-22T10:26:09;37.50;77.00
23063;DHT22;11699;43.704;10.430;2023-06-22T10:28:36;37.50;79.50
23063;DHT22;11699;43.704;10.430;2023-06-22T10:31:03;37.30;79.10
23063;DHT22;11699;43.704;10.430;2023-06-22T10:33:30;37.10;77.50
23063;DHT22;11699;43.704;10.430;2023-06-22T10:35:59;37.00;82.00
23063;DHT22;11699;43.704;10.430;2023-06-22T10:38:26;37.20;82.30
23063;DHT22;11699;43.704;10.430;2023-06-22T10:40:53;37.10;78.60
23063;DHT22;11699;43.704;10.430;2023-06-22T10:43:20;37.00;78.90
23063;DHT22;11699;43.704;10.430;2023-06-22T10:45:47;36.90;77.90
23063;DHT22;11699;43.704;10.430;2023-06-22T10:48:14;36.90;81.20
23063;DHT22;11699;43.704;10.430;2023-06-22T10:50:41;36.90;81.50
23063;DHT22;11699;43.704;10.430;2023-06-22T10:53:10;37.00;84.10
23063;DHT22;11699;43.704;10.430;2023-06-22T10:55:37;37.30;81.40
23063;DHT22;11699;43.704;10.430;2023-06-22T10:58:04;37.50;83.00
23063;DHT22;11699;43.704;10.430;2023-06-22T11:00:31;37.60;81.70
23063;DHT22;11699;43.704;10.430;2023-06-22T11:02:58;37.40;82.70
23063;DHT22;11699;43.704;10.430;2023-06-22T11:05:25;37.40;85.00
23063;DHT22;11699;43.704;10.430;2023-06-22T11:07:52;37.60;85.20
23063;DHT22;11699;43.704;10.430;2023-06-22T11:10:21;37.60;84.50
23063;DHT22;11699;43.704;10.430;2023-06-22T11:12:48;37.50;84.60
23063;DHT22;11699;43.704;10.430;2023-06-22T11:15:15;37.20;86.40
23063;DHT22;11699;43.704;10.430;2023-06-22T11:17:43;37.40;84.90
23063;DHT22;11699;43.704;10.430;2023-06-22T11:20:11;37.70;85.20
23063;DHT22;11699;43.704;10.430;2023-06-22T11:22:38;37.90;83.00
23063;DHT22;11699;43.704;10.430;2023-06-22T11:25:06;37.40;88.50
23063;DHT22;11699;43.704;10.430;2023-06-22T11:27:35;37.50;84.70
23063;DHT22;11699;43.704;10.430;2023-06-22T11:30:02;37.80;87.50
23063;DHT22;11699;43.704;10.430;2023-06-22T11:32:29;38.00;84.60
23063;DHT22;11699;43.704;10.430;2023-06-22T11:34:56;38.30;83.90
23063;DHT22;11699;43.704;10.430;2023-06-22T11:37:24;38.30;85.70
23063;DHT22;11699;43.704;10.430;2023-06-22T11:39:51;38.60;86.90
23063;DHT22;11699;43.704;10.430;2023-06-22T11:42:21;38.50;87.10
23063;DHT22;11699;43.704;10.430;2023-06-22T11:44:51;38.40;86.10
23063;DHT22;11699;43.704;10.430;2023-06-22T11:47:18;38.40;87.90
23063;DHT22;11699;43.704;10.430;2023-06-22T11:49:45;38.30;85.00
23063;DHT22;11699;43.704;10.430;2023-06-22T11:52:13;38.60;86.90
23063;DHT22;11699;43.704;10.430;2023-06-22T11:54:40;38.70;86.70
23063;DHT22;11699;43.704;10.430;2023-06-22T11:57:07;38.40;86.20
23063;DHT22;11699;43.704;10.430;2023-06-22T11:59:35;38.10;85.90
23063;DHT22;11699;43.704;10.430;2023-06-22T12:02:03;38.00;87.40
23063;DHT22;11699;43.704;10.430;2023-06-22T12:04:32;38.10;84.90
23063;DHT22;11699;43.704;10.430;2023-06-22T12:07:00;38.20;85.30
23063;DHT22;11699;43.704;10.430;2023-06-22T12:09:28;38.60;90.00
23063;DHT22;11699;43.704;10.430;2023-06-22T12:11:55;38.70;85.50
23063;DHT22;11699;43.704;10.430;2023-06-22T12:14:22;38.60;84.80
23063;DHT22;11699;43.704;10.430;2023-06-22T12:16:49;38.60;85.80
23063;DHT22;11699;43.704;10.430;2023-06-22T12:19:18;38.70;86.30
23063;DHT22;11699;43.704;10.430;2023-06-22T12:21:45;38.30;84.90
23063;DHT22;11699;43.704;10.430;2023-06-22T12:24:12;38.00;85.30
23063;DHT22;11699;43.704;10.430;2023-06-22T12:26:40;37.80;84.60
23063;DHT22;11699;43.704;10.430;2023-06-22T12:29:07;37.70;86.80
23063;DHT22;11699;43.704;10.430;2023-06-22T12:31:35;37.80;87.30
23063;DHT22;11699;43.704;10.430;2023-06-22T12:34:02;37.80;89.20
23063;DHT22;11699;43.704;10.430;2023-06-22T12:36:31;37.60;87.50
23063;DHT22;11699;43.704;10.430;2023-06-22T12:38:58;37.70;89.60
23063;DHT22;11699;43.704;10.430;2023-06-22T12:41:25;38.10;86.80
23063;DHT22;11699;43.704;10.430;2023-06-22T12:43:52;38.40;88.00
23063;DHT22;11699;43.704;10.430;2023-06-22T12:46:19;38.40;85.10
23063;DHT22;11699;43.704;10.430;2023-06-22T12:48:46;38.40;85.00
23063;DHT22;11699;43.704;10.430;2023-06-22T12:51:20;37.90;87.60
23063;DHT22;11699;43.704;10.430;2023-06-22T12:53:49;37.60;86.40
23063;DHT22;11699;43.704;10.430;2023-06-22T12:56:16;37.30;89.10
23063;DHT22;11699;43.704;10.430;2023-06-22T12:58:44;37.00;90.40
23063;DHT22;11699;43.704;10.430;2023-06-22T13:01:14;36.80;88.50
23063;DHT22;11699;43.704;10.430;2023-06-22T13:03:43;36.80;90.00
23063;DHT22;11699;43.704;10.430;2023-06-22T13:06:11;37.00;89.40
23063;DHT22;11699;43.704;10.430;2023-06-22T13:08:38;36.70;90.00
23063;DHT22;11699;43.704;10.430;2023-06-22T13:11:06;36.70;89.80
23063;DHT22;11699;43.704;10.430;2023-06-22T13:13:33;36.60;90.00
23063;DHT22;11699;43.704;10.430;2023-06-22T13:16:00;36.70;86.80
23063;DHT22;11699;43.704;10.430;2023-06-22T13:18:28;36.80;85.90
23063;DHT22;11699;43.704;10.430;2023-06-22T13:20:55;36.80;89.70
23063;DHT22;11699;43.704;10.430;2023-06-22T13:23:23;36.40;90.90
23063;DHT22;11699;43.704;10.430;2023-06-22T13:25:51;36.40;91.80
23063;DHT22;11699;43.704;10.430;2023-06-22T13:28:20;36.50;91.60
23063;DHT22;11699;43.704;10.430;2023-06-22T13:30:47;36.50;92.60
23063;DHT22;11699;43.704;10.430;2023-06-22T13:33:14;36.40;92.20
23063;DHT22;11699;43.704;10.430;2023-06-22T13:35:42;35.80;91.20
23063;DHT22;11699;43.704;10.430;2023-06-22T13:38:09;35.30;92.20
23063;DHT22;11699;43.704;10.430;2023-06-22T13:40:36;35.30;92.50
23063;DHT22;11699;43.704;10.430;2023-06-22T13:43:04;35.00;92.00
23063;DHT22;11699;43.704;10.430;2023-06-22T13:45:33;34.70;91.40
23063;DHT22;11699;43.704;10.430;2023-06-22T13:48:00;34.50;91.40
23063;DHT22;11699;43.704;10.430;2023-06-22T13:50:27;34.50;91.30
23063;DHT22;11699;43.704;10.430;2023-06-22T13:52:56;34.30;91.50
23063;DHT22;11699;43.704;10.430;2023-06-22T13:55:23;34.60;92.80
23063;DHT22;11699;43.704;10.430;2023-06-22T13:57:50;34.40;91.60
23063;DHT22;11699;43.704;10.430;2023-06-22T14:00:18;34.20;90.70
23063;DHT22;11699;43.704;10.430;2023-06-22T14:02:47;34.20;90.20
23063;DHT22;11699;43.704;10.430;2023-06-22T14:05:14;34.10;90.50
23063;DHT22;11699;43.704;10.430;2023-06-22T14:07:41;34.60;90.60
23063;DHT22;11699;43.704;10.430;2023-06-22T14:10:09;34.90;89.10
23063;DHT22;11699;43.704;10.430;2023-06-22T14:12:36;35.00;89.10
23063;DHT22;11699;43.704;10.430;2023-06-22T14:15:04;35.20;89.50
23063;DHT22;11699;43.704;10.430;2023-06-22T14:17:31;35.60;88.20
23063;DHT22;11699;43.704;10.430;2023-06-22T14:20:00;35.70;84.80
23063;DHT22;11699;43.704;10.430;2023-06-22T14:22:27;36.00;88.30
23063;DHT22;11699;43.704;10.430;2023-06-22T14:24:55;35.90;84.50
23063;DHT22;11699;43.704;10.430;2023-06-22T14:27:23;35.40;84.70
23063;DHT22;11699;43.704;10.430;2023-06-22T14:29:50;35.30;84.50
23063;DHT22;11699;43.704;10.430;2023-06-22T14:32:17;35.40;82.80
23063;DHT22;11699;43.704;10.430;2023-06-22T14:34:44;35.60;85.60
23063;DHT22;11699;43.704;10.430;2023-06-22T14:37:12;35.10;84.80
23063;DHT22;11699;43.704;10.430;2023-06-22T14:39:39;34.80;84.00
23063;DHT22;11699;43.704;10.430;2023-06-22T14:42:07;34.50;83.60
23063;DHT22;11699;43.704;10.430;2023-06-22T14:44:35;34.30;84.00
23063;DHT22;11699;43.704;10.430;2023-06-22T14:47:02;34.00;84.00
23063;DHT22;11699;43.704;10.430;2023-06-22T14:49:29;33.90;84.10
23063;DHT22;11699;43.704;10.430;2023-06-22T14:51:56;34.10;84.20
23063;DHT22;11699;43.704;10.430;2023-06-22T14:54:25;34.20;84.60
23063;DHT22;11699;43.704;10.430;2023-06-22T14:56:52;34.20;87.10
23063;DHT22;11699;43.704;10.430;2023-06-22T14:59:19;34.20;85.70
23063;DHT22;11699;43.704;10.430;2023-06-22T15:01:46;34.10;86.10
23063;DHT22;11699;43.704;10.430;2023-06-22T15:04:13;33.70;85.60
23063;DHT22;11699;43.704;10.430;2023-06-22T15:06:40;33.50;86.30
23063;DHT22;11699;43.704;10.430;2023-06-22T15:09:08;33.20;86.10
23063;DHT22;11699;43.704;10.430;2023-06-22T15:11:36;33.20;87.40
23063;DHT22;11699;43.704;10.430;2023-06-22T15:14:03;33.20;87.80
23063;DHT22;11699;43.704;10.430;2023-06-22T15:16:30;33.50;87.80
23063;DHT22;11699;43.704;10.430;2023-06-22T15:18:57;33.60;85.00
23063;DHT22;11699;43.704;10.430;2023-06-22T15:21:24;33.20;84.50
23063;DHT22;11699;43.704;10.430;2023-06-22T15:23:52;32.80;84.90